createdAt,value
2019-03-13T00:00:54.677Z,47.02
2019-03-13T00:01:54.686Z,47.33
2019-03-13T00:02:54.665Z,46.82
2019-03-13T00:03:54.653Z,47.13
2019-03-13T00:04:54.630Z,47.64
2019-03-13T00:05:54.614Z,46.92
2019-03-13T00:06:54.607Z,46.20
2019-03-13T00:07:54.624Z,46.41
2019-03-13T00:08:54.587Z,47.02
2019-03-13T00:09:54.572Z,46.69
2019-03-13T00:10:54.564Z,46.69
2019-03-13T00:11:54.548Z,46.72
2019-03-13T00:12:54.555Z,46.90
2019-03-13T00:13:54.532Z,46.90
2019-03-13T00:14:54.530Z,46.92
2019-03-13T00:15:54.576Z,47.11
2019-03-13T00:16:54.491Z,46.90
2019-03-13T00:17:54.508Z,47.20
2019-03-13T00:18:54.477Z,47.00
2019-03-13T00:19:54.469Z,47.64
2019-03-13T00:20:54.457Z,47.72
2019-03-13T00:21:54.464Z,47.85
2019-03-13T00:22:54.449Z,47.31
2019-03-13T00:23:54.427Z,47.33
2019-03-13T00:24:56.283Z,47.44
2019-03-13T00:25:54.400Z,47.72
2019-03-13T00:26:54.378Z,47.62
2019-03-13T00:27:54.394Z,47.82
2019-03-13T00:28:54.358Z,48.03
2019-03-13T00:29:54.762Z,47.31
2019-03-13T00:30:54.340Z,48.03
2019-03-13T00:31:54.326Z,48.03
2019-03-13T00:32:54.448Z,48.03
2019-03-13T00:33:54.302Z,48.13
2019-03-13T00:34:54.293Z,47.85
2019-03-13T00:35:54.282Z,47.41
2019-03-13T00:36:54.274Z,47.72
2019-03-13T00:37:54.288Z,47.52
2019-03-13T00:38:54.256Z,46.90
2019-03-13T00:39:54.239Z,46.59
2019-03-13T00:40:54.220Z,47.19
2019-03-13T00:41:54.212Z,46.26
2019-03-13T00:42:54.225Z,46.67
2019-03-13T00:43:54.211Z,46.98
2019-03-13T00:44:54.183Z,46.57
2019-03-13T00:45:54.173Z,47.08
2019-03-13T00:46:54.162Z,45.95
2019-03-13T00:47:54.147Z,45.23
2019-03-13T00:48:54.152Z,45.54
2019-03-13T00:49:54.123Z,45.03
2019-03-13T00:50:54.113Z,46.26
2019-03-13T00:51:54.101Z,45.34
2019-03-13T00:52:54.089Z,45.10
2019-03-13T00:53:54.185Z,45.01
2019-03-13T00:54:54.074Z,45.42
2019-03-13T00:55:54.057Z,45.21
2019-03-13T00:56:54.057Z,45.95
2019-03-13T00:57:54.032Z,45.21
2019-03-13T00:58:54.034Z,45.62
2019-03-13T00:59:54.015Z,45.93
2019-03-13T01:00:53.999Z,45.83
2019-03-13T01:01:53.983Z,45.01
2019-03-13T01:02:54.053Z,45.64
2019-03-13T01:03:53.999Z,45.03
2019-03-13T01:04:53.963Z,45.42
2019-03-13T01:05:53.952Z,45.21
2019-03-13T01:06:53.931Z,45.43
2019-03-13T01:07:53.914Z,45.42
2019-03-13T01:08:53.930Z,45.54
2019-03-13T01:09:53.902Z,45.62
2019-03-13T01:10:53.901Z,45.23
2019-03-13T01:11:53.872Z,45.03
2019-03-13T01:12:53.870Z,45.64
2019-03-13T01:13:53.869Z,45.31
2019-03-13T01:14:53.843Z,45.03
2019-03-13T01:15:53.833Z,45.23
2019-03-13T01:16:53.826Z,45.64
2019-03-13T01:17:53.837Z,45.64
2019-03-13T01:18:53.802Z,45.42
2019-03-13T01:19:53.785Z,45.52
2019-03-13T01:20:53.779Z,45.43
2019-03-13T01:21:53.767Z,45.52
2019-03-13T01:22:53.779Z,45.31
2019-03-13T01:23:53.747Z,45.34
2019-03-13T01:24:53.769Z,45.54
2019-03-13T01:25:53.731Z,44.82
2019-03-13T01:26:53.705Z,45.43
2019-03-13T01:27:53.703Z,45.13
2019-03-13T01:28:53.705Z,45.34
2019-03-13T01:29:53.699Z,45.85
2019-03-13T01:30:53.665Z,45.13
2019-03-13T01:31:53.659Z,45.23
2019-03-13T01:32:53.643Z,45.54
2019-03-13T01:33:53.627Z,45.23
2019-03-13T01:34:53.902Z,45.75
2019-03-13T01:35:53.612Z,45.13
2019-03-13T01:36:53.609Z,46.77
2019-03-13T01:37:53.587Z,46.88
2019-03-13T01:38:53.577Z,47.60
2019-03-13T01:39:53.567Z,48.01
2019-03-13T01:40:53.572Z,51.20
2019-03-13T01:41:53.538Z,51.22
2019-03-13T01:42:53.530Z,49.47
2019-03-13T01:43:53.519Z,51.01
2019-03-13T01:44:53.507Z,50.78
2019-03-13T01:45:53.523Z,51.12
2019-03-13T01:46:53.483Z,51.50
2019-03-13T01:47:53.474Z,52.25
2019-03-13T01:48:53.458Z,52.76
2019-03-13T01:49:53.461Z,53.69
2019-03-13T01:50:53.456Z,54.72
2019-03-13T01:51:53.423Z,56.15
2019-03-13T01:52:53.415Z,58.54
2019-03-13T01:53:53.412Z,60.09
2019-03-13T01:54:53.395Z,61.02
2019-03-13T01:55:53.414Z,62.70
2019-03-13T01:56:53.478Z,63.10
2019-03-13T01:57:53.357Z,63.93
2019-03-13T01:58:53.389Z,63.10
2019-03-13T01:59:53.405Z,63.93
2019-03-13T02:00:53.352Z,64.17
2019-03-13T02:01:53.317Z,64.17
2019-03-13T02:02:53.303Z,66.94
2019-03-13T02:03:53.291Z,65.64
2019-03-13T02:04:53.279Z,66.02
2019-03-13T02:05:53.267Z,66.25
2019-03-13T02:06:53.275Z,67.18
2019-03-13T02:07:53.251Z,68.52
2019-03-13T02:08:53.235Z,68.21
2019-03-13T02:09:53.229Z,69.45
2019-03-13T02:10:53.225Z,69.76
2019-03-13T02:11:53.221Z,70.00
2019-03-13T02:12:53.195Z,70.92
2019-03-13T02:13:53.185Z,69.59
2019-03-13T02:14:53.167Z,70.92
2019-03-13T02:15:53.152Z,70.31
2019-03-13T02:16:53.173Z,72.40
2019-03-13T02:17:53.141Z,73.74
2019-03-13T02:18:53.127Z,74.15
2019-03-13T02:19:53.120Z,74.71
2019-03-13T02:20:53.103Z,76.25
2019-03-13T02:21:53.111Z,77.18
2019-03-13T02:22:53.081Z,78.42
2019-03-13T02:23:53.063Z,78.52
2019-03-13T02:24:54.335Z,79.59
2019-03-13T02:25:53.045Z,78.73
2019-03-13T02:26:53.055Z,78.14
2019-03-13T02:27:53.027Z,77.22
2019-03-13T02:28:53.010Z,78.83
2019-03-13T02:29:53.035Z,80.32
2019-03-13T02:30:52.986Z,79.18
2019-03-13T02:31:52.973Z,81.35
2019-03-13T02:32:52.991Z,79.90
2019-03-13T02:33:52.964Z,80.93
2019-03-13T02:34:52.947Z,83.51
2019-03-13T02:35:52.933Z,83.31
2019-03-13T02:36:52.928Z,81.04
2019-03-13T02:37:52.938Z,82.17
2019-03-13T02:38:52.903Z,83.25
2019-03-13T02:39:52.934Z,84.79
2019-03-13T02:40:52.899Z,83.55
2019-03-13T02:41:52.874Z,85.31
2019-03-13T02:42:52.876Z,87.52
2019-03-13T02:43:52.842Z,85.83
2019-03-13T02:44:52.850Z,85.76
2019-03-13T02:45:52.834Z,85.45
2019-03-13T02:46:52.808Z,85.45
2019-03-13T02:47:52.815Z,84.52
2019-03-13T02:48:52.790Z,86.59
2019-03-13T02:49:52.781Z,84.42
2019-03-13T02:50:52.781Z,84.42
2019-03-13T02:51:52.750Z,85.62
2019-03-13T02:52:52.764Z,85.45
2019-03-13T02:53:52.742Z,84.21
2019-03-13T02:54:52.718Z,86.18
2019-03-13T02:55:52.729Z,85.55
2019-03-13T02:56:52.704Z,84.42
2019-03-13T02:57:52.711Z,84.31
2019-03-13T02:58:52.676Z,84.52
2019-03-13T02:59:52.659Z,83.59
2019-03-13T03:00:52.654Z,84.52
2019-03-13T03:01:52.640Z,84.31
2019-03-13T03:02:52.855Z,84.31
2019-03-13T03:03:52.620Z,83.07
2019-03-13T03:04:52.608Z,83.45
2019-03-13T03:05:52.602Z,83.25
2019-03-13T03:06:52.598Z,83.25
2019-03-13T03:07:52.599Z,83.25
2019-03-13T03:08:52.574Z,83.04
2019-03-13T03:09:52.553Z,83.04
2019-03-13T03:10:52.555Z,83.65
2019-03-13T03:11:52.526Z,82.93
2019-03-13T03:12:52.531Z,83.14
2019-03-13T03:13:52.506Z,83.14
2019-03-13T03:14:52.497Z,83.04
2019-03-13T03:15:52.484Z,83.25
2019-03-13T03:16:52.477Z,83.97
2019-03-13T03:17:52.474Z,83.76
2019-03-13T03:18:52.459Z,83.25
2019-03-13T03:19:52.448Z,83.14
2019-03-13T03:20:52.439Z,83.04
2019-03-13T03:21:52.426Z,83.55
2019-03-13T03:22:52.440Z,83.04
2019-03-13T03:23:52.391Z,83.65
2019-03-13T03:24:52.382Z,84.48
2019-03-13T03:25:52.383Z,84.28
2019-03-13T03:26:52.364Z,84.07
2019-03-13T03:27:52.353Z,84.38
2019-03-13T03:28:52.360Z,84.38
2019-03-13T03:29:52.350Z,84.48
2019-03-13T03:30:52.391Z,84.79
2019-03-13T03:31:52.304Z,84.28
2019-03-13T03:32:52.491Z,84.38
2019-03-13T03:33:52.369Z,83.65
2019-03-13T03:34:52.278Z,83.34
2019-03-13T03:35:52.271Z,81.28
2019-03-13T03:36:52.248Z,82.28
2019-03-13T03:37:52.248Z,80.11
2019-03-13T03:38:52.253Z,79.49
2019-03-13T03:39:52.215Z,79.08
2019-03-13T03:40:52.217Z,78.11
2019-03-13T03:41:52.191Z,76.77
2019-03-13T03:42:52.233Z,76.01
2019-03-13T03:43:52.165Z,75.60
2019-03-13T03:44:52.193Z,75.70
2019-03-13T03:45:52.148Z,76.12
2019-03-13T03:46:52.136Z,77.08
2019-03-13T03:47:52.131Z,77.25
2019-03-13T03:48:52.141Z,78.42
2019-03-13T03:49:52.107Z,77.80
2019-03-13T03:50:52.111Z,77.49
2019-03-13T03:51:52.079Z,77.49
2019-03-13T03:52:52.069Z,78.11
2019-03-13T03:53:52.088Z,77.08
2019-03-13T03:54:52.052Z,77.59
2019-03-13T03:55:52.049Z,77.28
2019-03-13T03:56:52.065Z,77.91
2019-03-13T03:57:52.011Z,76.98
2019-03-13T03:58:52.007Z,77.18
2019-03-13T03:59:52.006Z,77.28
2019-03-13T04:00:51.984Z,76.98
2019-03-13T04:01:51.983Z,76.25
2019-03-13T04:02:51.967Z,76.15
2019-03-13T04:03:51.946Z,75.98
2019-03-13T04:04:52.433Z,76.46
2019-03-13T04:05:51.924Z,76.81
2019-03-13T04:06:51.909Z,76.81
2019-03-13T04:07:51.900Z,76.50
2019-03-13T04:08:51.903Z,76.39
2019-03-13T04:09:51.898Z,75.46
2019-03-13T04:10:51.875Z,75.87
2019-03-13T04:11:51.866Z,76.60
2019-03-13T04:12:51.854Z,75.36
2019-03-13T04:13:51.841Z,74.95
2019-03-13T04:14:51.849Z,75.67
2019-03-13T04:15:51.827Z,74.95
2019-03-13T04:16:51.808Z,74.22
2019-03-13T04:17:51.796Z,74.57
2019-03-13T04:18:51.787Z,74.15
2019-03-13T04:19:51.804Z,74.02
2019-03-13T04:20:51.752Z,74.12
2019-03-13T04:21:51.742Z,74.22
2019-03-13T04:22:51.876Z,73.91
2019-03-13T04:23:51.725Z,73.95
2019-03-13T04:24:51.886Z,73.91
2019-03-13T04:25:51.700Z,73.54
2019-03-13T04:26:51.714Z,73.29
2019-03-13T04:27:51.726Z,72.91
2019-03-13T04:28:51.669Z,72.50
2019-03-13T04:29:51.675Z,72.50
2019-03-13T04:30:51.642Z,71.88
2019-03-13T04:31:51.631Z,71.75
2019-03-13T04:32:51.622Z,72.30
2019-03-13T04:33:51.619Z,72.19
2019-03-13T04:34:51.619Z,72.61
2019-03-13T04:35:51.590Z,71.06
2019-03-13T04:36:51.586Z,71.16
2019-03-13T04:37:51.560Z,71.57
2019-03-13T04:38:51.555Z,71.26
2019-03-13T04:39:51.563Z,71.67
2019-03-13T04:40:51.549Z,71.88
2019-03-13T04:41:51.531Z,71.37
2019-03-13T04:42:51.510Z,71.57
2019-03-13T04:43:51.506Z,72.40
2019-03-13T04:44:51.489Z,71.37
2019-03-13T04:45:51.494Z,71.47
2019-03-13T04:46:51.473Z,71.57
2019-03-13T04:47:51.461Z,70.85
2019-03-13T04:48:51.441Z,70.85
2019-03-13T04:49:51.451Z,70.03
2019-03-13T04:50:51.436Z,70.75
2019-03-13T04:51:51.403Z,70.33
2019-03-13T04:52:51.399Z,70.64
2019-03-13T04:53:51.383Z,70.43
2019-03-13T04:54:51.378Z,69.92
2019-03-13T04:55:52.660Z,69.20
2019-03-13T04:56:51.350Z,69.20
2019-03-13T04:57:51.341Z,69.30
2019-03-13T04:58:51.333Z,69.09
2019-03-13T04:59:51.315Z,66.82
2019-03-13T05:00:51.323Z,66.82
2019-03-13T05:01:51.296Z,66.51
2019-03-13T05:02:51.293Z,66.82
2019-03-13T05:03:51.269Z,65.37
2019-03-13T05:04:51.285Z,65.27
2019-03-13T05:05:51.278Z,65.89
2019-03-13T05:06:51.237Z,65.58
2019-03-13T05:07:51.227Z,65.37
2019-03-13T05:08:51.212Z,65.58
2019-03-13T05:09:51.205Z,65.48
2019-03-13T05:10:51.211Z,66.20
2019-03-13T05:11:51.192Z,65.69
2019-03-13T05:12:51.218Z,65.58
2019-03-13T05:13:51.163Z,64.96
2019-03-13T05:14:51.150Z,65.09
2019-03-13T05:15:51.157Z,64.86
2019-03-13T05:16:51.123Z,65.51
2019-03-13T05:17:51.129Z,65.20
2019-03-13T05:18:51.111Z,65.61
2019-03-13T05:19:51.099Z,66.33
2019-03-13T05:20:51.120Z,66.20
2019-03-13T05:21:51.090Z,65.61
2019-03-13T05:22:51.061Z,65.61
2019-03-13T05:23:51.047Z,66.13
2019-03-13T05:24:51.041Z,66.13
2019-03-13T05:25:51.033Z,66.75
2019-03-13T05:26:51.041Z,66.64
2019-03-13T05:27:51.007Z,66.54
2019-03-13T05:28:51.001Z,66.54
2019-03-13T05:29:50.981Z,66.67
2019-03-13T05:30:53.072Z,66.57
2019-03-13T05:31:50.975Z,66.57
2019-03-13T05:32:50.941Z,67.09
2019-03-13T05:33:50.934Z,67.19
2019-03-13T05:34:50.924Z,67.09
2019-03-13T05:35:50.930Z,67.43
2019-03-13T05:36:50.927Z,66.99
2019-03-13T05:37:50.886Z,67.40
2019-03-13T05:38:50.884Z,66.99
2019-03-13T05:39:50.868Z,67.71
2019-03-13T05:40:50.860Z,67.09
2019-03-13T05:41:50.866Z,68.23
2019-03-13T05:42:50.832Z,68.23
2019-03-13T05:43:50.840Z,68.02
2019-03-13T05:44:50.814Z,67.61
2019-03-13T05:45:50.811Z,68.02
2019-03-13T05:46:50.819Z,68.64
2019-03-13T05:47:50.800Z,68.43
2019-03-13T05:48:50.766Z,68.23
2019-03-13T05:49:50.754Z,68.54
2019-03-13T05:50:50.749Z,66.88
2019-03-13T05:51:50.756Z,68.26
2019-03-13T05:52:50.731Z,68.26
2019-03-13T05:53:50.711Z,67.95
2019-03-13T05:54:50.697Z,67.74
2019-03-13T05:55:50.693Z,67.22
2019-03-13T05:56:50.694Z,67.22
2019-03-13T05:57:50.664Z,67.40
2019-03-13T05:58:50.653Z,67.64
2019-03-13T05:59:50.637Z,67.12
2019-03-13T06:00:50.633Z,67.61
2019-03-13T06:01:50.647Z,68.26
2019-03-13T06:02:50.611Z,67.85
2019-03-13T06:03:50.597Z,68.26
2019-03-13T06:04:50.588Z,68.36
2019-03-13T06:05:50.581Z,68.46
2019-03-13T06:06:50.577Z,68.15
2019-03-13T06:07:50.576Z,67.95
2019-03-13T06:08:50.543Z,68.77
2019-03-13T06:09:50.539Z,68.46
2019-03-13T06:10:50.519Z,68.77
2019-03-13T06:11:50.509Z,68.46
2019-03-13T06:12:50.513Z,68.15
2019-03-13T06:13:50.488Z,68.88
2019-03-13T06:14:50.472Z,67.91
2019-03-13T06:15:50.469Z,66.91
2019-03-13T06:16:50.452Z,67.61
2019-03-13T06:17:50.470Z,67.09
2019-03-13T06:18:52.800Z,67.09
2019-03-13T06:19:50.421Z,68.12
2019-03-13T06:20:50.407Z,68.23
2019-03-13T06:21:50.403Z,67.19
2019-03-13T06:22:50.423Z,67.30
2019-03-13T06:23:50.388Z,67.09
2019-03-13T06:24:50.368Z,67.40
2019-03-13T06:25:50.354Z,67.09
2019-03-13T06:26:50.341Z,66.99
2019-03-13T06:27:50.361Z,67.19
2019-03-13T06:28:50.328Z,67.30
2019-03-13T06:29:50.303Z,66.96
2019-03-13T06:30:50.313Z,68.61
2019-03-13T06:31:50.287Z,67.37
2019-03-13T06:32:50.286Z,66.75
2019-03-13T06:33:50.261Z,66.64
2019-03-13T06:34:50.265Z,66.54
2019-03-13T06:35:50.241Z,66.03
2019-03-13T06:36:50.225Z,66.33
2019-03-13T06:37:50.241Z,66.13
2019-03-13T06:38:50.208Z,66.96
2019-03-13T06:39:50.192Z,66.54
2019-03-13T06:40:50.215Z,67.03
2019-03-13T06:41:50.165Z,66.20
2019-03-13T06:42:50.172Z,66.51
2019-03-13T06:43:50.149Z,66.41
2019-03-13T06:44:50.142Z,66.41
2019-03-13T06:45:50.133Z,65.61
2019-03-13T06:46:50.129Z,66.44
2019-03-13T06:47:50.140Z,66.33
2019-03-13T06:48:50.111Z,66.44
2019-03-13T06:49:50.085Z,66.54
2019-03-13T06:50:50.081Z,66.44
2019-03-13T06:51:50.063Z,66.23
2019-03-13T06:52:50.051Z,66.64
2019-03-13T06:53:50.056Z,67.16
2019-03-13T06:54:50.022Z,66.85
2019-03-13T06:55:50.023Z,66.51
2019-03-13T06:56:50.025Z,66.82
2019-03-13T06:57:50.002Z,66.51
2019-03-13T06:58:50.011Z,66.30
2019-03-13T06:59:49.977Z,66.72
2019-03-13T07:00:49.968Z,66.89
2019-03-13T07:01:49.949Z,66.58
2019-03-13T07:02:49.945Z,65.89
2019-03-13T07:03:49.950Z,66.82
2019-03-13T07:04:49.915Z,66.00
2019-03-13T07:05:49.905Z,67.21
2019-03-13T07:06:49.894Z,65.86
2019-03-13T07:07:49.879Z,65.97
2019-03-13T07:08:49.911Z,66.07
2019-03-13T07:09:49.858Z,66.61
2019-03-13T07:10:49.848Z,66.72
2019-03-13T07:11:49.835Z,66.51
2019-03-13T07:12:49.865Z,66.82
2019-03-13T07:13:49.837Z,66.51
2019-03-13T07:14:49.806Z,66.61
2019-03-13T07:15:49.787Z,66.72
2019-03-13T07:16:49.788Z,65.66
2019-03-13T07:17:49.774Z,66.27
2019-03-13T07:18:49.778Z,66.17
2019-03-13T07:19:49.751Z,66.69
2019-03-13T07:20:49.735Z,65.76
2019-03-13T07:21:49.723Z,65.66
2019-03-13T07:22:49.709Z,65.55
2019-03-13T07:23:49.732Z,64.80
2019-03-13T07:24:49.705Z,64.59
2019-03-13T07:25:49.686Z,64.39
2019-03-13T07:26:51.404Z,64.80
2019-03-13T07:27:49.681Z,64.70
2019-03-13T07:28:52.401Z,65.21
2019-03-13T07:29:49.649Z,64.49
2019-03-13T07:30:49.619Z,64.18
2019-03-13T07:31:49.607Z,63.64
2019-03-13T07:32:49.596Z,63.32
2019-03-13T07:33:49.605Z,64.15
2019-03-13T07:34:49.577Z,64.04
2019-03-13T07:35:49.575Z,63.43
2019-03-13T07:36:49.548Z,63.35
2019-03-13T07:37:49.541Z,64.18
2019-03-13T07:38:49.551Z,64.28
2019-03-13T07:39:49.519Z,64.07
2019-03-13T07:40:49.505Z,65.00
2019-03-13T07:41:49.506Z,64.28
2019-03-13T07:42:49.486Z,64.80
2019-03-13T07:43:49.509Z,64.80
2019-03-13T07:44:49.464Z,64.49
2019-03-13T07:45:49.479Z,64.59
2019-03-13T07:46:49.450Z,65.21
2019-03-13T07:47:49.430Z,64.39
2019-03-13T07:48:49.431Z,64.70
2019-03-13T07:49:49.403Z,64.18
2019-03-13T07:50:49.403Z,64.07
2019-03-13T07:51:49.429Z,64.07
2019-03-13T07:52:49.377Z,63.64
2019-03-13T07:53:49.362Z,63.43
2019-03-13T07:54:49.362Z,62.71
2019-03-13T07:55:49.338Z,62.71
2019-03-13T07:56:49.348Z,63.01
2019-03-13T07:57:49.326Z,62.78
2019-03-13T07:58:49.327Z,62.47
2019-03-13T07:59:49.292Z,62.68
2019-03-13T08:00:49.363Z,62.16
2019-03-13T08:01:49.267Z,61.82
2019-03-13T08:02:49.263Z,60.69
2019-03-13T08:03:49.268Z,61.72
2019-03-13T08:04:49.237Z,62.54
2019-03-13T08:05:49.231Z,61.52
2019-03-13T08:06:49.220Z,61.49
2019-03-13T08:07:49.213Z,61.28
2019-03-13T08:08:49.227Z,60.69
2019-03-13T08:09:49.186Z,61.00
2019-03-13T08:10:49.179Z,60.82
2019-03-13T08:11:49.183Z,60.72
2019-03-13T08:12:49.168Z,60.79
2019-03-13T08:13:49.161Z,60.69
2019-03-13T08:14:49.130Z,60.17
2019-03-13T08:15:49.115Z,59.12
2019-03-13T08:16:49.102Z,59.22
2019-03-13T08:17:49.109Z,59.42
2019-03-13T08:18:49.083Z,59.22
2019-03-13T08:19:49.090Z,58.91
2019-03-13T08:20:49.057Z,58.47
2019-03-13T08:21:49.050Z,58.68
2019-03-13T08:22:49.039Z,58.16
2019-03-13T08:23:49.022Z,58.47
2019-03-13T08:24:49.031Z,59.01
2019-03-13T08:25:49.000Z,59.01
2019-03-13T08:26:48.993Z,59.14
2019-03-13T08:27:48.977Z,58.91
2019-03-13T08:28:48.976Z,58.50
2019-03-13T08:29:48.976Z,59.09
2019-03-13T08:30:48.943Z,58.81
2019-03-13T08:31:48.933Z,58.68
2019-03-13T08:32:48.925Z,58.68
2019-03-13T08:33:48.911Z,58.98
2019-03-13T08:34:48.915Z,58.65
2019-03-13T08:35:48.899Z,58.78
2019-03-13T08:36:48.875Z,57.73
2019-03-13T08:37:48.867Z,57.82
2019-03-13T08:38:48.852Z,58.65
2019-03-13T08:39:48.859Z,58.52
2019-03-13T08:40:48.833Z,57.42
2019-03-13T08:41:48.819Z,56.80
2019-03-13T08:42:48.878Z,57.01
2019-03-13T08:43:48.801Z,57.14
2019-03-13T08:44:48.811Z,57.44
2019-03-13T08:45:48.779Z,58.24
2019-03-13T08:46:48.769Z,57.65
2019-03-13T08:47:48.753Z,56.80
2019-03-13T08:48:48.751Z,57.21
2019-03-13T08:49:48.747Z,56.90
2019-03-13T08:50:48.728Z,57.42
2019-03-13T08:51:48.709Z,56.90
2019-03-13T08:52:48.703Z,58.34
2019-03-13T08:53:48.683Z,56.80
2019-03-13T08:54:48.697Z,56.98
2019-03-13T08:55:48.664Z,57.29
2019-03-13T08:56:48.656Z,56.36
2019-03-13T08:57:48.639Z,56.46
2019-03-13T08:58:48.635Z,56.77
2019-03-13T08:59:48.649Z,56.98
2019-03-13T09:00:48.609Z,57.08
2019-03-13T09:01:48.597Z,56.26
2019-03-13T09:02:48.588Z,56.57
2019-03-13T09:03:48.581Z,56.36
2019-03-13T09:04:48.583Z,56.44
2019-03-13T09:05:48.552Z,57.29
2019-03-13T09:06:48.547Z,56.77
2019-03-13T09:07:48.549Z,56.26
2019-03-13T09:08:48.517Z,57.06
2019-03-13T09:09:48.602Z,57.18
2019-03-13T09:10:48.502Z,57.08
2019-03-13T09:11:48.485Z,56.67
2019-03-13T09:12:48.508Z,56.87
2019-03-13T09:13:48.463Z,56.67
2019-03-13T09:14:48.479Z,57.39
2019-03-13T09:15:48.437Z,56.67
2019-03-13T09:16:48.431Z,57.01
2019-03-13T09:17:48.416Z,56.26
2019-03-13T09:18:48.410Z,56.44
2019-03-13T09:19:48.395Z,56.54
2019-03-13T09:20:48.412Z,56.34
2019-03-13T09:21:48.370Z,56.10
2019-03-13T09:22:48.357Z,56.31
2019-03-13T09:23:48.360Z,55.90
2019-03-13T09:24:48.341Z,55.87
2019-03-13T09:25:48.341Z,55.54
2019-03-13T09:26:48.325Z,54.92
2019-03-13T09:27:48.302Z,54.21
2019-03-13T09:28:48.299Z,54.82
2019-03-13T09:29:48.285Z,53.87
2019-03-13T09:30:48.288Z,53.66
2019-03-13T09:31:48.384Z,53.69
2019-03-13T09:32:48.243Z,53.89
2019-03-13T09:33:48.237Z,54.49
2019-03-13T09:34:48.230Z,54.28
2019-03-13T09:35:48.235Z,53.97
2019-03-13T09:36:48.217Z,53.97
2019-03-13T09:37:48.193Z,53.56
2019-03-13T09:38:48.185Z,53.85
2019-03-13T09:39:48.167Z,53.12
2019-03-13T09:40:48.196Z,53.03
2019-03-13T09:41:48.146Z,53.92
2019-03-13T09:42:48.147Z,52.87
2019-03-13T09:43:48.131Z,51.34
2019-03-13T09:44:48.118Z,51.34
2019-03-13T09:45:48.115Z,51.03
2019-03-13T09:46:48.089Z,51.51
2019-03-13T09:47:48.076Z,51.03
2019-03-13T09:48:48.064Z,51.23
2019-03-13T09:49:48.055Z,49.69
2019-03-13T09:50:48.061Z,50.34
2019-03-13T09:51:48.032Z,50.10
2019-03-13T09:52:48.019Z,49.29
2019-03-13T09:53:48.006Z,49.29
2019-03-13T09:54:48.000Z,49.37
2019-03-13T09:55:48.010Z,50.49
2019-03-13T09:56:47.976Z,50.18
2019-03-13T09:57:47.976Z,50.78
2019-03-13T09:58:47.957Z,50.47
2019-03-13T09:59:47.952Z,49.16
2019-03-13T10:00:47.954Z,49.37
2019-03-13T10:01:47.920Z,49.59
2019-03-13T10:02:47.909Z,49.80
2019-03-13T10:03:47.896Z,49.72
2019-03-13T10:04:47.887Z,50.56
2019-03-13T10:05:47.899Z,50.36
2019-03-13T10:06:47.868Z,51.07
2019-03-13T10:07:47.856Z,50.56
2019-03-13T10:08:47.847Z,51.48
2019-03-13T10:09:47.830Z,51.07
2019-03-13T10:10:47.974Z,50.26
2019-03-13T10:11:47.802Z,50.46
2019-03-13T10:12:47.792Z,50.85
2019-03-13T10:13:47.784Z,50.67
2019-03-13T10:14:47.773Z,50.77
2019-03-13T10:15:47.779Z,50.67
2019-03-13T10:16:47.755Z,50.56
2019-03-13T10:17:47.740Z,51.28
2019-03-13T10:18:47.724Z,51.31
2019-03-13T10:19:47.740Z,51.31
2019-03-13T10:20:47.747Z,51.69
2019-03-13T10:21:47.732Z,50.49
2019-03-13T10:22:47.687Z,48.05
2019-03-13T10:23:47.680Z,46.47
2019-03-13T10:24:47.660Z,44.24
2019-03-13T10:25:49.206Z,44.59
2019-03-13T10:26:47.643Z,44.81
2019-03-13T10:27:47.653Z,45.88
2019-03-13T10:28:47.608Z,47.45
2019-03-13T10:29:47.600Z,47.25
2019-03-13T10:30:47.609Z,49.11
2019-03-13T10:31:47.581Z,47.58
2019-03-13T10:32:47.596Z,49.14
2019-03-13T10:33:47.557Z,48.42
2019-03-13T10:34:47.548Z,48.32
2019-03-13T10:35:47.541Z,49.14
2019-03-13T10:36:50.362Z,48.96
2019-03-13T10:37:47.513Z,48.96
2019-03-13T10:38:47.499Z,48.96
2019-03-13T10:39:47.490Z,48.75
2019-03-13T10:40:47.482Z,47.42
2019-03-13T10:41:47.494Z,48.77
2019-03-13T10:42:47.453Z,48.75
2019-03-13T10:43:47.443Z,49.16
2019-03-13T10:44:47.433Z,47.81
2019-03-13T10:45:47.427Z,48.22
2019-03-13T10:46:47.431Z,47.60
2019-03-13T10:47:47.415Z,46.62
2019-03-13T10:48:47.387Z,46.06
2019-03-13T10:49:47.371Z,44.76
2019-03-13T10:50:47.373Z,45.49
2019-03-13T10:51:47.435Z,46.03
2019-03-13T10:52:47.346Z,46.47
2019-03-13T10:53:47.335Z,44.81
2019-03-13T10:54:47.317Z,44.43
2019-03-13T10:55:47.307Z,44.00
2019-03-13T10:56:47.318Z,43.88
2019-03-13T10:57:47.283Z,42.57
2019-03-13T10:58:47.274Z,39.78
2019-03-13T10:59:47.263Z,41.11
2019-03-13T11:00:47.272Z,39.30
2019-03-13T11:01:47.269Z,38.57
2019-03-13T11:02:47.239Z,36.82
2019-03-13T11:03:47.217Z,37.64
2019-03-13T11:04:47.227Z,38.96
2019-03-13T11:05:47.194Z,35.55
2019-03-13T11:06:54.940Z,35.75
2019-03-13T11:07:48.178Z,33.78
2019-03-13T11:08:47.161Z,34.30
2019-03-13T11:09:47.168Z,34.31
2019-03-13T11:10:47.139Z,37.00
2019-03-13T11:11:47.133Z,36.15
2019-03-13T11:12:48.593Z,36.15
2019-03-13T11:13:47.104Z,36.68
2019-03-13T11:14:47.093Z,35.44
2019-03-13T11:15:47.086Z,35.53
2019-03-13T11:16:47.069Z,35.35
2019-03-13T11:17:47.079Z,37.04
2019-03-13T11:18:47.052Z,36.25
2019-03-13T11:19:47.044Z,35.24
2019-03-13T11:20:47.028Z,37.29
2019-03-13T11:21:47.018Z,39.97
2019-03-13T11:22:47.033Z,39.99
2019-03-13T11:23:46.989Z,38.62
2019-03-13T11:24:46.983Z,35.58
2019-03-13T11:25:46.971Z,36.44
2019-03-13T11:26:46.967Z,38.75
2019-03-13T11:27:46.972Z,38.49
2019-03-13T11:28:46.935Z,36.37
2019-03-13T11:29:46.923Z,36.17
2019-03-13T11:30:46.916Z,38.04
2019-03-13T11:31:46.897Z,40.55
2019-03-13T11:32:46.910Z,42.21
2019-03-13T11:33:46.886Z,42.71
2019-03-13T11:34:46.878Z,43.04
2019-03-13T11:35:46.855Z,43.75
2019-03-13T11:36:46.853Z,42.02
2019-03-13T11:37:46.852Z,43.96
2019-03-13T11:38:46.827Z,42.53
2019-03-13T11:39:46.816Z,43.67
2019-03-13T11:40:46.802Z,43.98
2019-03-13T11:41:46.793Z,44.20
2019-03-13T11:42:46.798Z,44.65
2019-03-13T11:43:46.770Z,45.82
2019-03-13T11:44:46.775Z,47.15
2019-03-13T11:45:46.743Z,46.56
2019-03-13T11:46:46.731Z,46.94
2019-03-13T11:47:46.745Z,46.23
2019-03-13T11:48:46.710Z,46.12
2019-03-13T11:49:46.702Z,46.56
2019-03-13T11:50:46.707Z,46.35
2019-03-13T11:51:46.682Z,48.01
2019-03-13T11:52:46.708Z,47.09
2019-03-13T11:53:46.661Z,47.09
2019-03-13T11:54:46.641Z,47.73
2019-03-13T11:55:46.631Z,48.26
2019-03-13T11:56:46.623Z,48.47
2019-03-13T11:57:46.626Z,48.98
2019-03-13T11:58:46.602Z,48.44
2019-03-13T11:59:46.603Z,48.57
2019-03-13T12:00:46.578Z,47.85
2019-03-13T12:01:46.564Z,48.57
2019-03-13T12:02:46.582Z,47.64
2019-03-13T12:03:46.539Z,48.59
2019-03-13T12:04:46.538Z,49.00
2019-03-13T12:05:46.523Z,49.18
2019-03-13T12:06:46.505Z,48.90
2019-03-13T12:07:46.494Z,48.47
2019-03-13T12:08:46.501Z,48.16
2019-03-13T12:09:46.471Z,48.75
2019-03-13T12:10:46.468Z,48.06
2019-03-13T12:11:46.451Z,48.67
2019-03-13T12:12:46.438Z,47.44
2019-03-13T12:13:46.452Z,49.18
2019-03-13T12:14:46.413Z,48.57
2019-03-13T12:15:46.405Z,48.57
2019-03-13T12:16:46.391Z,48.49
2019-03-13T12:17:46.385Z,48.69
2019-03-13T12:18:46.388Z,49.41
2019-03-13T12:19:46.364Z,49.64
2019-03-13T12:20:46.352Z,49.64
2019-03-13T12:21:46.343Z,49.62
2019-03-13T12:22:46.328Z,49.64
2019-03-13T12:23:46.335Z,49.85
2019-03-13T12:24:46.307Z,50.23
2019-03-13T12:25:46.295Z,50.05
2019-03-13T12:26:46.284Z,49.43
2019-03-13T12:27:46.275Z,49.62
2019-03-13T12:28:46.279Z,49.51
2019-03-13T12:29:46.249Z,49.13
2019-03-13T12:30:46.236Z,50.64
2019-03-13T12:31:46.223Z,49.41
2019-03-13T12:32:46.219Z,49.62
2019-03-13T12:33:46.223Z,49.21
2019-03-13T12:34:46.193Z,48.80
2019-03-13T12:35:46.178Z,49.93
2019-03-13T12:36:46.178Z,49.85
2019-03-13T12:37:46.157Z,49.41
2019-03-13T12:38:46.165Z,49.95
2019-03-13T12:39:46.134Z,49.54
2019-03-13T12:40:46.127Z,49.33
2019-03-13T12:41:46.109Z,49.51
2019-03-13T12:42:46.101Z,49.82
2019-03-13T12:43:46.110Z,49.31
2019-03-13T12:44:46.082Z,49.64
2019-03-13T12:45:46.064Z,49.43
2019-03-13T12:46:46.066Z,48.69
2019-03-13T12:47:46.050Z,49.43
2019-03-13T12:48:46.056Z,48.69
2019-03-13T12:49:46.024Z,49.82
2019-03-13T12:50:46.007Z,49.10
2019-03-13T12:51:46.003Z,49.00
2019-03-13T12:52:46.007Z,49.00